createdAt,value
2023-09-12T00:01:00.159Z,97609.53
2023-09-12T00:03:29.697Z,97601.66
2023-09-12T00:05:59.023Z,97602.47
2023-09-12T00:08:27.329Z,97597.31
2023-09-12T00:11:03.535Z,97591.69
2023-09-12T00:13:32.737Z,97594.59
2023-09-12T00:16:01.147Z,97587.06
2023-09-12T00:18:30.926Z,97580.78
2023-09-12T00:21:02.319Z,97581.56
2023-09-12T00:23:34.621Z,97583.19
2023-09-12T00:26:02.755Z,97579.97
2023-09-12T00:28:30.831Z,97583.19
2023-09-12T00:31:01.671Z,97578.84
2023-09-12T00:33:31.299Z,97581.09
2023-09-12T00:35:59.503Z,97587.06
2023-09-12T00:38:27.730Z,97592.38
2023-09-12T00:40:55.788Z,97586.59
2023-09-12T00:43:23.943Z,97584.03
2023-09-12T00:45:52.029Z,97581.44
2023-09-12T00:48:21.200Z,97584.34
2023-09-12T00:50:53.726Z,97584.03
2023-09-12T00:53:22.430Z,97580.78
2023-09-12T00:55:57.500Z,97585.63
2023-09-12T00:58:26.344Z,97582.88
2023-09-12T01:00:54.377Z,97576.75
2023-09-12T01:03:22.567Z,97572.75
2023-09-12T01:05:53.173Z,97580.31
2023-09-12T01:08:21.404Z,97580.16
2023-09-12T01:10:51.979Z,97591.56
2023-09-12T01:13:20.203Z,97592.69
2023-09-12T01:15:48.378Z,97587.38
2023-09-12T01:18:16.599Z,97580.16
2023-09-12T01:21:01.052Z,97596.09
2023-09-12T01:23:46.001Z,97588.53
2023-09-12T01:26:31.579Z,97588.03
2023-09-12T01:29:02.831Z,97580.31
2023-09-12T01:31:32.254Z,97576.13
2023-09-12T01:34:00.538Z,97580.16
2023-09-12T01:36:28.647Z,97574.69
2023-09-12T01:39:01.407Z,97573.88
2023-09-12T01:41:33.219Z,97576.47
2023-09-12T01:44:05.171Z,97575.03
2023-09-12T01:46:39.259Z,97575.88
2023-09-12T01:49:10.823Z,97571.03
2023-09-12T01:51:39.527Z,97577.97
2023-09-12T01:54:09.301Z,97590.16
2023-09-12T01:56:37.658Z,97583.59
2023-09-12T01:59:07.459Z,97586.31
2023-09-12T02:01:35.661Z,97584.72
2023-09-12T02:04:09.851Z,97581.66
2023-09-12T02:06:40.447Z,97578.13
2023-09-12T02:09:08.551Z,97583.56
2023-09-12T02:11:36.586Z,97568.16
2023-09-12T02:14:06.227Z,97579.53
2023-09-12T02:16:34.333Z,97566.06
2023-09-12T02:19:04.213Z,97569.28
2023-09-12T02:21:32.574Z,97570.25
2023-09-12T02:24:00.751Z,97568.31
2023-09-12T02:26:29.143Z,97569.59
2023-09-12T02:28:57.164Z,97565.09
2023-09-12T02:31:26.640Z,97562.50
2023-09-12T02:33:55.983Z,97557.66
2023-09-12T02:36:24.147Z,97554.31
2023-09-12T02:38:52.267Z,97562.66
2023-09-12T02:41:20.319Z,97559.47
2023-09-12T02:43:48.454Z,97560.41
2023-09-12T02:46:16.595Z,97558.03
2023-09-12T02:48:46.508Z,97556.91
2023-09-12T02:51:14.808Z,97554.50
2023-09-12T02:53:42.900Z,97555.44
2023-09-12T02:56:10.998Z,97562.50
2023-09-12T02:58:39.011Z,97557.06
2023-09-12T03:01:07.730Z,97545.97
2023-09-12T03:03:36.127Z,97551.06
2023-09-12T03:06:06.078Z,97548.00
2023-09-12T03:08:35.056Z,97540.44
2023-09-12T03:11:04.111Z,97544.47
2023-09-12T03:13:32.211Z,97536.28
2023-09-12T03:16:00.417Z,97538.84
2023-09-12T03:18:28.855Z,97541.56
2023-09-12T03:20:57.250Z,97534.81
2023-09-12T03:23:26.823Z,97538.69
2023-09-12T03:25:55.017Z,97541.25
2023-09-12T03:28:23.211Z,97544.63
2023-09-12T03:30:52.755Z,97542.38
2023-09-12T03:33:21.074Z,97540.13
2023-09-12T03:35:50.550Z,97538.38
2023-09-12T03:38:18.689Z,97532.41
2023-09-12T03:40:48.168Z,97543.19
2023-09-12T03:43:16.500Z,97537.09
2023-09-12T03:45:44.514Z,97542.72
2023-09-12T03:48:12.769Z,97548.97
2023-09-12T03:50:40.919Z,97549.78
2023-09-12T03:53:09.044Z,97543.50
2023-09-12T03:55:37.340Z,97551.72
2023-09-12T03:58:06.790Z,97556.69
2023-09-12T04:00:35.031Z,97556.03
2023-09-12T04:03:03.378Z,97556.97
2023-09-12T04:05:31.575Z,97553.78
2023-09-12T04:07:59.719Z,97553.47
2023-09-12T04:10:27.812Z,97555.38
2023-09-12T04:12:56.148Z,97546.06
2023-09-12T04:15:25.704Z,97550.41
2023-09-12T04:17:54.512Z,97551.06
2023-09-12T04:20:22.651Z,97543.97
2023-09-12T04:22:51.015Z,97539.66
2023-09-12T04:25:21.223Z,97542.53
2023-09-12T04:27:49.385Z,97547.19
2023-09-12T04:30:17.618Z,97548.31
2023-09-12T04:32:49.600Z,97544.13
2023-09-12T04:35:19.034Z,97551.50
2023-09-12T04:37:47.193Z,97544.44
2023-09-12T04:40:16.914Z,97547.19
2023-09-12T04:42:45.112Z,97540.78
2023-09-12T04:45:13.307Z,97531.94
2023-09-12T04:47:41.475Z,97538.81
2023-09-12T04:50:12.873Z,97531.59
2023-09-12T04:52:40.951Z,97532.41
2023-09-12T04:55:09.710Z,97539.31
2023-09-12T04:57:39.942Z,97545.25
2023-09-12T05:00:12.238Z,97545.75
2023-09-12T05:02:40.568Z,97536.94
2023-09-12T05:05:10.823Z,97544.63
2023-09-12T05:07:40.747Z,97538.69
2023-09-12T05:10:09.596Z,97536.59
2023-09-12T05:12:45.394Z,97536.44
2023-09-12T05:15:13.485Z,97545.09
2023-09-12T05:17:41.453Z,97542.72
2023-09-12T05:20:12.816Z,97542.22
2023-09-12T05:22:40.854Z,97544.00
2023-09-12T05:25:11.930Z,97544.13
2023-09-12T05:27:43.184Z,97544.31
2023-09-12T05:30:11.997Z,97540.63
2023-09-12T05:32:40.305Z,97549.44
2023-09-12T05:35:20.729Z,97561.00
2023-09-12T05:37:50.221Z,97561.94
2023-09-12T05:40:18.739Z,97561.34
2023-09-12T05:42:47.110Z,97557.00
2023-09-12T05:45:15.415Z,97561.16
2023-09-12T05:47:43.582Z,97562.63
2023-09-12T05:50:13.639Z,97564.88
2023-09-12T05:52:42.935Z,97563.00
2023-09-12T05:55:12.739Z,97569.91
2023-09-12T05:57:41.087Z,97561.06
2023-09-12T06:00:12.266Z,97557.69
2023-09-12T06:02:40.546Z,97564.13
2023-09-12T06:05:09.816Z,97565.56
2023-09-12T06:07:42.057Z,97571.84
2023-09-12T06:10:11.486Z,97569.28
2023-09-12T06:12:39.821Z,97567.19
2023-09-12T06:15:09.008Z,97568.13
2023-09-12T06:17:37.369Z,97574.22
2023-09-12T06:20:07.738Z,97590.13
2023-09-12T06:22:37.108Z,97592.38
2023-09-12T06:25:10.386Z,97596.56
2023-09-12T06:27:38.676Z,97595.44
2023-09-12T06:30:08.346Z,97584.97
2023-09-12T06:32:36.639Z,97586.59
2023-09-12T06:35:05.051Z,97581.28
2023-09-12T06:37:33.140Z,97578.19
2023-09-12T06:40:01.222Z,97580.72
2023-09-12T06:42:30.833Z,97579.19
2023-09-12T06:44:59.252Z,97576.06
2023-09-12T06:47:29.397Z,97571.19
2023-09-12T06:49:57.866Z,97574.81
2023-09-12T06:52:26.199Z,97580.13
2023-09-12T06:54:54.433Z,97582.91
2023-09-12T06:57:22.484Z,97592.31
2023-09-12T06:59:52.174Z,97594.19
2023-09-12T07:02:20.472Z,97604.00
2023-09-12T07:04:48.845Z,97597.03
2023-09-12T07:07:17.133Z,97602.44
2023-09-12T07:09:45.497Z,97605.31
2023-09-12T07:12:13.769Z,97609.00
2023-09-12T07:14:41.936Z,97608.75
2023-09-12T07:17:11.901Z,97606.81
2023-09-12T07:19:40.673Z,97615.19
2023-09-12T07:22:09.529Z,97613.50
2023-09-12T07:24:37.618Z,97618.59
2023-09-12T07:27:06.178Z,97626.63
2023-09-12T07:29:34.327Z,97628.78
2023-09-12T07:32:02.506Z,97628.81
2023-09-12T07:34:32.076Z,97622.56
2023-09-12T07:37:00.353Z,97628.06
2023-09-12T07:39:31.590Z,97625.22
2023-09-12T07:41:59.855Z,97625.84
2023-09-12T07:44:30.941Z,97628.84
2023-09-12T07:46:59.178Z,97634.47
2023-09-12T07:49:28.218Z,97646.09
2023-09-12T07:51:58.630Z,97642.44
2023-09-12T07:54:26.935Z,97637.28
2023-09-12T07:56:57.933Z,97641.09
2023-09-12T07:59:26.815Z,97627.47
2023-09-12T08:01:55.156Z,97644.19
2023-09-12T08:04:23.645Z,97638.06
2023-09-12T08:06:57.886Z,97632.50
2023-09-12T08:09:53.661Z,97636.34
2023-09-12T08:12:22.744Z,97635.47
2023-09-12T08:14:51.168Z,97630.84
2023-09-12T08:17:19.580Z,97628.97
2023-09-12T08:19:47.904Z,97622.88
2023-09-12T08:22:16.249Z,97612.75
2023-09-12T08:24:44.568Z,97614.50
2023-09-12T08:27:15.089Z,97619.25
2023-09-12T08:29:45.927Z,97618.09
2023-09-12T08:32:14.161Z,97620.44
2023-09-12T08:34:45.392Z,97611.78
2023-09-12T08:37:13.547Z,97628.28
2023-09-12T08:39:46.496Z,97625.31
2023-09-12T08:42:17.665Z,97628.63
2023-09-12T08:44:46.406Z,97622.59
2023-09-12T08:47:16.535Z,97619.16
2023-09-12T08:49:45.231Z,97624.59
2023-09-12T08:52:13.342Z,97628.69
2023-09-12T08:54:41.458Z,97633.84
2023-09-12T08:57:14.347Z,97634.88
2023-09-12T08:59:49.558Z,97635.41
2023-09-12T09:02:18.801Z,97627.66
2023-09-12T09:04:50.834Z,97627.03
2023-09-12T09:07:22.445Z,97625.94
2023-09-12T09:09:53.191Z,97631.94
2023-09-12T09:12:22.035Z,97622.56
2023-09-12T09:14:51.771Z,97624.59
2023-09-12T09:17:34.523Z,97632.34
2023-09-12T09:20:07.186Z,97623.84
2023-09-12T09:22:35.305Z,97623.47
2023-09-12T09:25:13.965Z,97622.50
2023-09-12T09:27:52.511Z,97611.69
2023-09-12T09:30:41.607Z,97609.44
2023-09-12T09:33:10.596Z,97607.16
2023-09-12T09:35:39.855Z,97601.72
2023-09-12T09:38:11.607Z,97600.75
2023-09-12T09:40:48.563Z,97603.44
2023-09-12T09:43:23.695Z,97593.69
2023-09-12T09:45:53.681Z,97594.22
2023-09-12T09:48:22.689Z,97603.28
2023-09-12T09:50:53.012Z,97594.91
2023-09-12T09:53:24.271Z,97592.69
2023-09-12T09:55:52.504Z,97591.88
2023-09-12T09:58:20.593Z,97595.59
2023-09-12T10:00:55.255Z,97589.13
2023-09-12T10:03:26.461Z,97582.38
2023-09-12T10:05:59.419Z,97577.34
2023-09-12T10:08:29.322Z,97577.75
2023-09-12T10:10:57.496Z,97574.94
2023-09-12T10:13:28.193Z,97571.44
2023-09-12T10:15:59.643Z,97576.25
2023-09-12T10:18:31.506Z,97574.31
2023-09-12T10:21:07.341Z,97577.09
2023-09-12T10:23:43.220Z,97581.50
2023-09-12T10:26:19.029Z,97578.50
2023-09-12T10:28:52.488Z,97573.47
2023-09-12T10:31:22.754Z,97566.81
2023-09-12T10:33:56.173Z,97562.50
2023-09-12T10:36:28.327Z,97556.50
2023-09-12T10:38:57.856Z,97559.78
2023-09-12T10:41:27.109Z,97560.47
2023-09-12T10:43:57.677Z,97559.31
2023-09-12T10:46:26.087Z,97568.91
2023-09-12T10:48:58.212Z,97561.00
2023-09-12T10:51:26.710Z,97567.00
2023-09-12T10:53:55.285Z,97577.31
2023-09-12T10:56:25.645Z,97563.78
2023-09-12T10:59:13.923Z,97571.75
2023-09-12T11:01:44.197Z,97571.34
2023-09-12T11:04:38.827Z,97568.59
2023-09-12T11:07:35.113Z,97567.34
2023-09-12T11:10:21.070Z,97577.25
2023-09-12T11:12:51.162Z,97563.75
2023-09-12T11:15:19.990Z,97576.50
2023-09-12T11:17:49.084Z,97574.56
2023-09-12T11:20:20.202Z,97579.38
2023-09-12T11:22:49.974Z,97566.66
2023-09-12T11:25:22.915Z,97576.19
2023-09-12T11:28:08.596Z,97564.69
2023-09-12T11:30:57.084Z,97567.13
2023-09-12T11:33:26.821Z,97560.38
2023-09-12T11:35:59.231Z,97557.63
2023-09-12T11:38:34.404Z,97555.63
2023-09-12T11:41:04.682Z,97544.53
2023-09-12T11:43:33.894Z,97562.81
2023-09-12T11:46:04.196Z,97554.88
2023-09-12T11:48:33.022Z,97544.91
2023-09-12T11:51:04.876Z,97547.69
2023-09-12T11:53:36.692Z,97542.13
2023-09-12T11:56:05.432Z,97538.94
2023-09-12T11:58:33.768Z,97538.53
2023-09-12T12:01:02.084Z,97538.06
2023-09-12T12:03:30.677Z,97540.81
2023-09-12T12:05:59.359Z,97538.88
2023-09-12T12:08:32.756Z,97539.22
2023-09-12T12:11:02.207Z,97539.28
2023-09-12T12:13:31.187Z,97534.03
2023-09-12T12:15:59.743Z,97527.28
2023-09-12T12:18:30.735Z,97530.84
2023-09-12T12:20:59.167Z,97526.47
2023-09-12T12:23:28.745Z,97524.88
2023-09-12T12:25:56.857Z,97528.47
2023-09-12T12:28:26.500Z,97530.94
2023-09-12T12:30:56.762Z,97534.50
2023-09-12T12:34:43.424Z,97525.00
2023-09-12T12:36:16.979Z,97516.09
2023-09-12T12:39:53.964Z,97512.88
2023-09-12T12:41:47.860Z,97503.38
2023-09-12T12:44:19.374Z,97496.63
2023-09-12T12:46:51.395Z,97499.34
2023-09-12T12:49:21.784Z,97493.34
2023-09-12T12:51:52.114Z,97496.94
2023-09-12T12:54:25.415Z,97495.34
2023-09-12T12:56:58.173Z,97495.75
2023-09-12T12:59:26.560Z,97495.44
2023-09-12T13:01:54.759Z,97494.66
2023-09-12T13:04:23.730Z,97493.41
2023-09-12T13:06:51.906Z,97491.00
2023-09-12T13:09:23.657Z,97486.63
2023-09-12T13:11:57.649Z,97488.97
2023-09-12T13:14:31.930Z,97478.63
2023-09-12T13:17:04.234Z,97478.63
2023-09-12T13:19:37.231Z,97473.50
2023-09-12T13:22:05.948Z,97469.13
2023-09-12T13:24:36.391Z,97461.94
2023-09-12T13:27:04.865Z,97458.75
2023-09-12T13:29:33.023Z,97454.63
2023-09-12T13:32:01.331Z,97448.31
2023-09-12T13:34:29.606Z,97448.66
2023-09-12T13:37:11.439Z,97448.75
2023-09-12T13:39:41.599Z,97447.97
2023-09-12T13:42:11.130Z,97447.97
2023-09-12T13:44:41.913Z,97448.78
2023-09-12T13:47:10.206Z,97445.59
2023-09-12T13:49:38.628Z,97439.66
2023-09-12T13:52:07.548Z,97442.84
2023-09-12T13:54:35.787Z,97439.69
2023-09-12T13:57:05.705Z,97443.69
2023-09-12T13:59:44.018Z,97439.81
2023-09-12T14:02:14.392Z,97436.56
2023-09-12T14:04:43.727Z,97433.06
2023-09-12T14:07:13.425Z,97439.44
2023-09-12T14:09:43.356Z,97442.72
2023-09-12T14:12:24.844Z,97443.53
2023-09-12T14:15:05.488Z,97439.94
2023-09-12T14:17:50.249Z,97433.94
2023-09-12T14:20:24.886Z,97436.72
2023-09-12T14:22:53.936Z,97436.75
2023-09-12T14:25:28.207Z,97439.53
2023-09-12T14:27:59.453Z,97437.13
2023-09-12T14:30:36.424Z,97449.06
2023-09-12T14:33:05.300Z,97443.84
2023-09-12T14:35:40.625Z,97456.59
2023-09-12T14:38:08.816Z,97443.16
2023-09-12T14:40:37.138Z,97458.28
2023-09-12T14:43:11.505Z,97455.13
2023-09-12T14:45:40.958Z,97447.19
2023-09-12T14:48:10.812Z,97443.22
2023-09-12T14:50:42.889Z,97443.63
2023-09-12T14:53:13.078Z,97442.84
2023-09-12T14:55:41.605Z,97436.84
2023-09-12T14:58:18.189Z,97444.41
2023-09-12T15:00:46.691Z,97440.03
2023-09-12T15:03:14.959Z,97439.22
2023-09-12T15:05:43.378Z,97439.59
2023-09-12T15:08:12.068Z,97435.22
2023-09-12T15:10:42.203Z,97443.16
2023-09-12T15:13:12.442Z,97446.69
2023-09-12T15:15:40.630Z,97444.66
2023-09-12T15:18:09.018Z,97434.75
2023-09-12T15:20:37.251Z,97429.19
2023-09-12T15:23:06.655Z,97433.13
2023-09-12T15:25:34.651Z,97428.00
2023-09-12T15:28:02.878Z,97435.13
2023-09-12T15:30:32.354Z,97439.09
2023-09-12T15:33:00.596Z,97431.94
2023-09-12T15:35:28.827Z,97438.69
2023-09-12T15:37:57.035Z,97437.50
2023-09-12T15:40:25.138Z,97432.31
2023-09-12T15:45:51.862Z,97424.41
2023-09-12T15:48:20.344Z,97427.56
2023-09-12T15:50:48.572Z,97421.19
2023-09-12T15:53:17.277Z,97423.97
2023-09-12T15:55:45.528Z,97423.91
2023-09-12T15:58:16.314Z,97421.50
2023-09-12T16:00:46.557Z,97425.78
2023-09-12T16:03:16.327Z,97418.63
2023-09-12T16:05:45.902Z,97423.72
2023-09-12T16:08:17.075Z,97418.91
2023-09-12T16:10:45.161Z,97414.53
2023-09-12T16:13:15.361Z,97417.66
2023-09-12T16:15:43.647Z,97406.94
2023-09-12T16:18:12.039Z,97409.69
2023-09-12T16:20:41.702Z,97401.72
2023-09-12T16:23:09.846Z,97403.25
2023-09-12T16:25:38.108Z,97408.41
2023-09-12T16:28:06.856Z,97400.88
2023-09-12T16:30:38.145Z,97396.13
2023-09-12T16:33:06.832Z,97397.78
2023-09-12T16:35:35.032Z,97386.72
2023-09-12T16:38:04.808Z,97386.75
2023-09-12T16:40:33.565Z,97379.63
2023-09-12T16:43:02.574Z,97377.69
2023-09-12T16:45:31.300Z,97376.16
2023-09-12T16:47:59.442Z,97387.66
2023-09-12T16:50:28.189Z,97376.97
2023-09-12T16:52:56.241Z,97384.91
2023-09-12T16:55:27.077Z,97390.81
2023-09-12T16:57:56.983Z,97387.19
2023-09-12T17:00:25.375Z,97403.03
2023-09-12T17:02:53.495Z,97406.94
2023-09-12T17:05:24.310Z,97403.38
2023-09-12T17:07:52.652Z,97398.56
2023-09-12T17:10:21.631Z,97403.66
2023-09-12T17:12:51.101Z,97409.13
2023-09-12T17:15:19.849Z,97396.38
2023-09-12T17:17:48.078Z,97405.81
2023-09-12T17:20:16.288Z,97398.19
2023-09-12T17:22:44.518Z,97404.81
2023-09-12T17:25:13.841Z,97395.25
2023-09-12T17:27:42.245Z,97408.59
2023-09-12T17:30:12.638Z,97419.59
2023-09-12T17:32:40.869Z,97423.84
2023-09-12T17:35:10.135Z,97472.63
2023-09-12T17:37:38.227Z,97462.47
2023-09-12T17:40:10.265Z,97455.88
2023-09-12T17:42:38.653Z,97459.66
2023-09-12T17:45:08.328Z,97461.88
2023-09-12T17:47:37.940Z,97464.59
2023-09-12T17:50:07.036Z,97463.38
2023-09-12T17:52:35.047Z,97460.88
2023-09-12T17:55:03.008Z,97456.41
2023-09-12T17:57:31.144Z,97458.69
2023-09-12T17:59:59.351Z,97461.34
2023-09-12T18:02:27.474Z,97453.13
2023-09-12T18:04:57.047Z,97460.78
2023-09-12T18:07:25.787Z,97452.06
2023-09-12T18:09:53.953Z,97463.88
2023-09-12T18:12:22.972Z,97456.25
2023-09-12T18:14:51.082Z,97455.41
2023-09-12T18:17:19.225Z,97461.66
2023-09-12T18:19:47.248Z,97456.44
2023-09-12T18:22:17.981Z,97469.38
2023-09-12T18:24:46.111Z,97460.59
2023-09-12T18:27:14.420Z,97469.19
2023-09-12T18:29:44.902Z,97467.09
2023-09-12T18:32:13.083Z,97469.00
2023-09-12T18:34:41.159Z,97477.88
2023-09-12T18:37:13.469Z,97481.28
2023-09-12T18:39:44.456Z,97483.91
2023-09-12T18:42:12.819Z,97492.13
2023-09-12T18:44:40.889Z,97490.75
2023-09-12T18:47:09.341Z,97492.97
2023-09-12T18:49:37.574Z,97506.25
2023-09-12T18:52:08.220Z,97509.31
2023-09-12T18:54:37.220Z,97511.19
2023-09-12T18:57:12.883Z,97523.31
2023-09-12T18:59:41.092Z,97517.00
2023-09-12T19:02:10.154Z,97512.56
2023-09-12T19:04:38.933Z,97518.31
2023-09-12T19:07:07.552Z,97509.47
2023-09-12T19:09:35.738Z,97512.50
2023-09-12T19:12:05.088Z,97512.41
2023-09-12T19:14:34.780Z,97516.63
2023-09-12T19:17:06.746Z,97513.66
2023-09-12T19:19:34.928Z,97510.66
2023-09-12T19:22:03.527Z,97517.06
2023-09-12T19:24:31.539Z,97517.06
2023-09-12T19:26:59.614Z,97507.19
2023-09-12T19:29:27.674Z,97507.91
2023-09-12T19:31:57.487Z,97505.94
2023-09-12T19:34:25.577Z,97511.03
2023-09-12T19:36:54.692Z,97513.78
2023-09-12T19:39:22.740Z,97526.75
2023-09-12T19:41:50.819Z,97530.75
2023-09-12T19:44:19.292Z,97528.78
2023-09-12T19:46:47.534Z,97515.66
2023-09-12T19:49:17.052Z,97534.41
2023-09-12T19:51:46.696Z,97531.63
2023-09-12T19:54:15.056Z,97530.81
2023-09-12T19:56:43.300Z,97526.72
2023-09-12T19:59:11.688Z,97537.31
2023-09-12T20:01:39.885Z,97542.03
2023-09-12T20:04:08.231Z,97527.53
2023-09-12T20:06:38.010Z,97524.59
2023-09-12T20:09:11.791Z,97534.47
2023-09-12T20:11:39.917Z,97540.44
2023-09-12T20:14:08.091Z,97548.69
2023-09-12T20:16:36.111Z,97544.69
2023-09-12T20:19:06.729Z,97557.28
2023-09-12T20:21:35.196Z,97564.56
2023-09-12T20:24:07.398Z,97559.78
2023-09-12T20:26:35.640Z,97569.09
2023-09-12T20:29:07.243Z,97570.25
2023-09-12T20:31:36.424Z,97576.13
2023-09-12T20:34:05.079Z,97578.59
2023-09-12T20:36:35.151Z,97578.06
2023-09-12T20:39:29.982Z,97583.13
2023-09-12T20:41:59.111Z,97585.09
2023-09-12T20:44:27.943Z,97582.59
2023-09-12T20:46:57.121Z,97589.00
2023-09-12T20:49:25.394Z,97584.28
2023-09-12T20:51:56.174Z,97577.88
2023-09-12T20:54:24.510Z,97592.44
2023-09-12T20:56:54.173Z,97606.13
2023-09-12T20:59:22.476Z,97584.59
2023-09-12T21:01:50.817Z,97591.63
2023-09-12T21:04:19.377Z,97585.50
2023-09-12T21:06:47.917Z,97597.41
2023-09-12T21:09:16.674Z,97595.00
2023-09-12T21:11:45.070Z,97601.31
2023-09-12T21:14:15.094Z,97595.72
2023-09-12T21:16:45.478Z,97605.47
2023-09-12T21:19:13.757Z,97597.56
2023-09-12T21:21:42.250Z,97600.66
2023-09-12T21:24:10.661Z,97591.59
2023-09-12T21:26:38.834Z,97598.25
2023-09-12T21:29:07.291Z,97613.88
2023-09-12T21:31:37.470Z,97614.13
2023-09-12T21:34:05.973Z,97612.06
2023-09-12T21:36:34.385Z,97608.25
2023-09-12T21:39:04.723Z,97613.19
2023-09-12T21:41:34.115Z,97615.84
2023-09-12T21:44:02.647Z,97626.13
2023-09-12T21:46:33.607Z,97627.63
2023-09-12T21:49:04.923Z,97618.13
2023-09-12T21:51:33.122Z,97620.88
2023-09-12T21:54:01.288Z,97631.09
2023-09-12T21:56:29.561Z,97638.09
2023-09-12T21:58:57.660Z,97635.34
2023-09-12T22:01:26.507Z,97635.69
2023-09-12T22:03:55.000Z,97652.09
2023-09-12T22:06:26.978Z,97651.75
2023-09-12T22:08:56.095Z,97659.91
2023-09-12T22:11:25.768Z,97664.03
2023-09-12T22:13:53.934Z,97660.38
2023-09-12T22:16:24.985Z,97674.59
2023-09-12T22:18:53.302Z,97671.25
2023-09-12T22:21:21.674Z,97674.16
2023-09-12T22:23:53.886Z,97676.81
2023-09-12T22:26:22.214Z,97681.97
2023-09-12T22:28:50.759Z,97677.03
2023-09-12T22:31:19.217Z,97679.09
2023-09-12T22:33:55.698Z,97681.03
2023-09-12T22:36:24.010Z,97688.03
2023-09-12T22:38:55.578Z,97677.69
2023-09-12T22:41:26.217Z,97682.47
2023-09-12T22:43:55.332Z,97677.31
2023-09-12T22:46:23.677Z,97668.03
2023-09-12T22:48:53.653Z,97676.63
2023-09-12T22:51:21.953Z,97675.91
2023-09-12T22:53:50.652Z,97681.88
2023-09-12T22:56:20.498Z,97684.97
2023-09-12T22:58:49.240Z,97682.56
2023-09-12T23:01:17.672Z,97687.78
2023-09-12T23:03:48.276Z,97676.91
2023-09-12T23:06:20.317Z,97692.06
2023-09-12T23:08:48.780Z,97685.19
2023-09-12T23:11:17.057Z,97700.97
2023-09-12T23:13:46.947Z,97696.28
2023-09-12T23:16:15.291Z,97699.19
2023-09-12T23:18:44.051Z,97698.19
2023-09-12T23:21:14.621Z,97703.53
2023-09-12T23:23:43.083Z,97707.22
2023-09-12T23:26:11.370Z,97708.94
2023-09-12T23:28:39.545Z,97716.84
2023-09-12T23:31:10.364Z,97734.38
2023-09-12T23:33:38.626Z,97727.63
2023-09-12T23:36:11.315Z,97726.69
2023-09-12T23:38:39.682Z,97738.59
2023-09-12T23:41:07.900Z,97733.78
2023-09-12T23:43:36.334Z,97731.03
2023-09-12T23:46:04.656Z,97746.38
2023-09-12T23:48:34.470Z,97737.66
2023-09-12T23:51:02.658Z,97738.00
2023-09-12T23:53:30.971Z,97750.00
2023-09-12T23:56:02.854Z,97756.63
2023-09-12T23:58:31.046Z,97760.66
